createdAt,value
2022-12-05T00:01:28.729Z,26.97
2022-12-05T00:03:59.295Z,27.07
2022-12-05T00:06:29.709Z,26.03
2022-12-05T00:08:58.511Z,28.10
2022-12-05T00:11:30.348Z,26.97
2022-12-05T00:14:00.804Z,26.73
2022-12-05T00:16:31.661Z,26.83
2022-12-05T00:19:00.714Z,27.40
2022-12-05T00:21:31.559Z,25.90
2022-12-05T00:24:01.269Z,25.50
2022-12-05T00:26:32.640Z,25.63
2022-12-05T00:29:01.219Z,26.27
2022-12-05T00:31:29.569Z,26.93
2022-12-05T00:34:00.713Z,26.40
2022-12-05T00:36:30.627Z,27.07
2022-12-05T00:39:00.598Z,26.43
2022-12-05T00:41:31.094Z,27.93
2022-12-05T00:44:01.111Z,27.07
2022-12-05T00:46:31.660Z,27.27
2022-12-05T00:49:01.446Z,27.83
2022-12-05T00:51:31.013Z,28.47
2022-12-05T00:54:00.327Z,26.17
2022-12-05T00:56:31.404Z,26.83
2022-12-05T00:59:00.817Z,27.57
2022-12-05T01:01:32.586Z,27.07
2022-12-05T01:04:02.688Z,27.03
2022-12-05T01:06:30.836Z,27.17
2022-12-05T01:08:59.606Z,27.60
2022-12-05T01:11:28.583Z,27.50
2022-12-05T01:13:58.842Z,28.00
2022-12-05T01:16:29.352Z,26.00
2022-12-05T01:18:59.117Z,26.80
2022-12-05T01:21:27.287Z,26.07
2022-12-05T01:23:55.479Z,27.70
2022-12-05T01:26:24.405Z,27.23
2022-12-05T01:28:53.101Z,25.97
2022-12-05T01:31:25.515Z,28.13
2022-12-05T01:33:55.703Z,26.47
2022-12-05T01:36:24.697Z,25.07
2022-12-05T01:38:53.284Z,28.37
2022-12-05T01:41:23.430Z,26.17
2022-12-05T01:43:56.381Z,26.27
2022-12-05T01:46:26.795Z,26.27
2022-12-05T01:49:00.872Z,27.47
2022-12-05T01:51:29.192Z,26.63
2022-12-05T01:53:57.411Z,26.10
2022-12-05T01:56:25.564Z,27.57
2022-12-05T01:58:54.849Z,26.73
2022-12-05T02:01:23.117Z,27.27
2022-12-05T02:03:56.341Z,24.47
2022-12-05T02:06:24.736Z,23.60
2022-12-05T02:08:53.460Z,25.33
2022-12-05T02:11:22.883Z,23.73
2022-12-05T02:14:08.580Z,24.50
2022-12-05T02:16:48.932Z,25.67
2022-12-05T02:19:48.383Z,24.00
2022-12-05T02:22:43.876Z,24.90
2022-12-05T02:25:27.837Z,25.73
2022-12-05T02:28:40.642Z,23.53
2022-12-05T02:31:16.376Z,23.47
2022-12-05T02:33:48.685Z,23.20
2022-12-05T02:36:23.033Z,24.27
2022-12-05T02:38:59.724Z,23.77
2022-12-05T02:41:33.545Z,22.63
2022-12-05T02:44:06.255Z,23.30
2022-12-05T02:46:39.051Z,23.90
2022-12-05T02:49:10.435Z,22.83
2022-12-05T02:51:43.330Z,22.70
2022-12-05T02:54:15.076Z,23.33
2022-12-05T02:56:45.870Z,22.90
2022-12-05T02:59:18.511Z,21.90
2022-12-05T03:01:51.350Z,21.97
2022-12-05T03:04:22.395Z,23.00
2022-12-05T03:06:53.884Z,22.47
2022-12-05T03:09:26.057Z,22.13
2022-12-05T03:11:57.125Z,21.17
2022-12-05T03:14:28.038Z,22.23
2022-12-05T03:17:01.762Z,21.87
2022-12-05T03:19:36.481Z,21.70
2022-12-05T03:22:09.954Z,20.70
2022-12-05T03:24:40.579Z,21.53
2022-12-05T03:27:14.091Z,21.67
2022-12-05T03:29:51.135Z,20.93
2022-12-05T03:32:25.537Z,21.90
2022-12-05T03:35:02.309Z,19.90
2022-12-05T03:37:40.991Z,21.93
2022-12-05T03:40:15.860Z,20.03
2022-12-05T03:42:53.099Z,20.07
2022-12-05T03:45:26.323Z,19.07
2022-12-05T03:48:01.903Z,21.43
2022-12-05T03:50:31.185Z,19.87
2022-12-05T03:55:55.749Z,19.87
2022-12-05T03:58:30.902Z,20.30
2022-12-05T04:01:02.225Z,20.03
2022-12-05T04:03:40.320Z,18.60
2022-12-05T04:06:15.102Z,19.40
2022-12-05T04:08:49.021Z,17.47
2022-12-05T04:11:20.991Z,17.97
2022-12-05T04:13:53.075Z,17.93
2022-12-05T04:16:42.485Z,18.27
2022-12-05T04:19:18.777Z,19.13
2022-12-05T04:21:50.468Z,18.20
2022-12-05T04:24:38.268Z,17.40
2022-12-05T04:27:13.768Z,17.20
2022-12-05T04:29:49.462Z,16.80
2022-12-05T04:32:19.851Z,16.70
2022-12-05T04:34:57.570Z,17.10
2022-12-05T04:37:27.310Z,17.00
2022-12-05T04:40:00.617Z,16.90
2022-12-05T04:42:32.218Z,17.80
2022-12-05T04:45:05.234Z,18.17
2022-12-05T04:47:40.686Z,16.60
2022-12-05T04:50:12.921Z,17.17
2022-12-05T04:52:42.682Z,15.83
2022-12-05T04:55:13.569Z,17.13
2022-12-05T04:57:56.395Z,16.33
2022-12-05T05:00:24.528Z,15.87
2022-12-05T05:02:57.112Z,15.73
2022-12-05T05:05:28.312Z,16.00
2022-12-05T05:07:56.843Z,15.47
2022-12-05T05:10:32.180Z,15.77
2022-12-05T05:13:00.170Z,15.90
2022-12-05T05:15:28.238Z,15.47
2022-12-05T05:17:56.215Z,16.50
2022-12-05T05:20:27.518Z,16.27
2022-12-05T05:22:58.671Z,15.33
2022-12-05T05:25:27.118Z,15.90
2022-12-05T05:27:56.992Z,16.27
2022-12-05T05:30:26.242Z,16.03
2022-12-05T05:32:54.620Z,16.10
2022-12-05T05:35:22.696Z,16.00
2022-12-05T05:37:50.712Z,15.27
2022-12-05T05:40:20.265Z,16.10
2022-12-05T05:42:50.600Z,15.33
2022-12-05T05:45:19.110Z,16.60
2022-12-05T05:47:49.451Z,15.47
2022-12-05T05:50:21.694Z,15.90
2022-12-05T05:52:50.076Z,16.17
2022-12-05T05:55:19.783Z,17.10
2022-12-05T05:57:48.071Z,15.53
2022-12-05T06:00:17.159Z,16.57
2022-12-05T06:02:45.277Z,16.80
2022-12-05T06:05:13.470Z,15.10
2022-12-05T06:07:41.556Z,16.47
2022-12-05T06:10:10.517Z,16.30
2022-12-05T06:12:39.924Z,15.70
2022-12-05T06:15:09.281Z,16.70
2022-12-05T06:17:37.270Z,16.40
2022-12-05T06:20:06.053Z,15.43
2022-12-05T06:22:34.595Z,15.73
2022-12-05T06:25:02.560Z,15.77
2022-12-05T06:27:31.577Z,15.87
2022-12-05T06:30:01.315Z,15.57
2022-12-05T06:32:29.886Z,15.60
2022-12-05T06:34:58.244Z,14.83
2022-12-05T06:37:26.294Z,15.10
2022-12-05T06:39:54.286Z,15.40
2022-12-05T06:42:23.018Z,14.03
2022-12-05T06:44:51.033Z,16.13
2022-12-05T06:47:20.410Z,16.23
2022-12-05T06:49:48.507Z,15.60
2022-12-05T06:52:16.526Z,16.43
2022-12-05T06:54:44.508Z,15.20
2022-12-05T06:57:12.466Z,14.20
2022-12-05T06:59:40.520Z,15.07
2022-12-05T07:02:08.539Z,15.50
2022-12-05T07:04:38.035Z,15.90
2022-12-05T07:07:06.240Z,15.43
2022-12-05T07:09:52.323Z,15.13
2022-12-05T07:12:20.907Z,16.37
2022-12-05T07:14:49.872Z,15.37
2022-12-05T07:17:18.576Z,16.50
2022-12-05T07:19:48.946Z,15.03
2022-12-05T07:22:17.463Z,15.43
2022-12-05T07:24:45.773Z,14.40
2022-12-05T07:27:14.129Z,15.57
2022-12-05T07:29:42.224Z,15.27
2022-12-05T07:32:10.549Z,15.60
2022-12-05T07:34:39.581Z,14.73
2022-12-05T07:37:08.992Z,15.30
2022-12-05T07:39:37.024Z,14.57
2022-12-05T07:42:05.216Z,14.43
2022-12-05T07:44:33.358Z,15.23
2022-12-05T07:47:01.336Z,16.20
2022-12-05T07:49:29.501Z,15.63
2022-12-05T07:51:58.375Z,16.63
2022-12-05T07:54:27.717Z,16.70
2022-12-05T07:56:55.689Z,15.30
2022-12-05T07:59:23.685Z,16.70
2022-12-05T08:01:52.065Z,17.27
2022-12-05T08:04:20.102Z,16.97
2022-12-05T08:06:48.169Z,18.40
2022-12-05T08:09:16.158Z,17.23
2022-12-05T08:11:51.014Z,16.83
2022-12-05T08:14:20.825Z,17.50
2022-12-05T08:16:48.939Z,18.47
2022-12-05T08:19:17.877Z,18.43
2022-12-05T08:21:45.937Z,18.00
2022-12-05T08:24:14.479Z,18.57
2022-12-05T08:26:42.965Z,19.10
2022-12-05T08:29:14.679Z,19.20
2022-12-05T08:31:44.243Z,18.30
2022-12-05T08:34:14.095Z,19.63
2022-12-05T08:36:42.757Z,17.63
2022-12-05T08:39:14.953Z,19.37
2022-12-05T08:41:43.439Z,18.77
2022-12-05T08:44:16.336Z,18.67
2022-12-05T08:46:46.208Z,19.43
2022-12-05T08:49:15.036Z,18.33
2022-12-05T08:51:44.092Z,21.77
2022-12-05T08:54:12.466Z,20.17
2022-12-05T08:56:52.197Z,20.67
2022-12-05T08:59:21.622Z,20.20
2022-12-05T09:01:51.693Z,20.67
2022-12-05T09:04:19.723Z,19.80
2022-12-05T09:06:47.695Z,20.23
2022-12-05T09:09:15.834Z,21.40
2022-12-05T09:11:48.876Z,21.90
2022-12-05T09:14:17.325Z,20.57
2022-12-05T09:16:48.144Z,21.33
2022-12-05T09:19:20.261Z,21.50
2022-12-05T09:21:48.310Z,21.63
2022-12-05T09:24:16.304Z,19.93
2022-12-05T09:26:45.477Z,21.73
2022-12-05T09:29:17.217Z,22.70
2022-12-05T09:31:49.892Z,20.73
2022-12-05T09:34:20.050Z,23.53
2022-12-05T09:36:55.637Z,22.90
2022-12-05T09:39:26.544Z,21.23
2022-12-05T09:42:08.893Z,24.27
2022-12-05T09:45:05.851Z,21.33
2022-12-05T09:47:46.994Z,22.83
2022-12-05T09:50:20.022Z,23.37
2022-12-05T09:53:05.011Z,24.13
2022-12-05T09:55:39.502Z,24.10
2022-12-05T09:58:20.723Z,24.17
2022-12-05T10:00:50.909Z,25.83
2022-12-05T10:03:29.939Z,24.37
2022-12-05T10:06:08.711Z,24.63
2022-12-05T10:08:48.722Z,25.73
2022-12-05T10:11:26.710Z,26.83
2022-12-05T10:13:59.875Z,25.23
2022-12-05T10:16:34.932Z,24.47
2022-12-05T10:19:12.057Z,22.83
2022-12-05T10:21:46.995Z,25.83
2022-12-05T10:24:19.713Z,25.30
2022-12-05T10:26:55.097Z,26.60
2022-12-05T10:29:28.979Z,24.73
2022-12-05T10:32:05.227Z,24.73
2022-12-05T10:34:39.690Z,25.60
2022-12-05T10:37:15.317Z,24.53
2022-12-05T10:39:43.628Z,25.00
2022-12-05T10:42:17.369Z,25.23
2022-12-05T10:44:46.233Z,25.67
2022-12-05T10:47:15.220Z,25.13
2022-12-05T10:49:44.834Z,25.93
2022-12-05T10:52:15.261Z,23.43
2022-12-05T10:54:48.352Z,26.80
2022-12-05T10:57:24.798Z,25.33
2022-12-05T10:59:53.352Z,24.40
2022-12-05T11:02:27.123Z,25.37
2022-12-05T11:04:58.525Z,25.50
2022-12-05T11:07:31.924Z,25.77
2022-12-05T11:10:01.442Z,24.13
2022-12-05T11:12:37.346Z,25.43
2022-12-05T11:15:21.664Z,23.97
2022-12-05T11:17:51.369Z,25.43
2022-12-05T11:20:39.487Z,25.13
2022-12-05T11:23:28.453Z,25.43
2022-12-05T11:25:57.321Z,25.87
2022-12-05T11:28:37.045Z,24.60
2022-12-05T11:31:08.929Z,25.37
2022-12-05T11:33:37.705Z,24.40
2022-12-05T11:36:15.767Z,26.70
2022-12-05T11:38:44.066Z,25.53
2022-12-05T11:41:26.575Z,25.10
2022-12-05T11:44:13.447Z,26.83
2022-12-05T11:46:53.728Z,27.13
2022-12-05T11:49:46.225Z,26.60
2022-12-05T11:52:26.137Z,25.33
2022-12-05T11:55:05.644Z,24.40
2022-12-05T11:57:52.748Z,26.23
2022-12-05T12:00:25.911Z,25.00
2022-12-05T12:03:21.175Z,25.07
2022-12-05T12:06:00.216Z,26.27
2022-12-05T12:08:31.515Z,26.40
2022-12-05T12:11:09.977Z,25.63
2022-12-05T12:13:52.803Z,24.23
2022-12-05T12:16:29.327Z,26.07
2022-12-05T12:19:15.336Z,24.43
2022-12-05T12:21:57.707Z,26.30
2022-12-05T12:24:38.368Z,26.33
2022-12-05T12:27:16.943Z,25.93
2022-12-05T12:29:59.536Z,25.57
2022-12-05T12:32:36.265Z,24.63
2022-12-05T12:35:24.910Z,24.60
2022-12-05T12:38:24.393Z,27.10
2022-12-05T12:40:58.131Z,25.53
2022-12-05T12:43:53.608Z,26.23
2022-12-05T12:46:32.025Z,24.47
2022-12-05T12:49:15.514Z,26.57
2022-12-05T12:51:52.696Z,25.13
2022-12-05T12:57:47.111Z,24.33
2022-12-05T13:00:24.894Z,26.03
2022-12-05T13:03:00.323Z,25.47
2022-12-05T13:05:34.507Z,26.23
2022-12-05T13:08:07.360Z,25.83
2022-12-05T13:10:39.562Z,25.70
2022-12-05T13:13:12.153Z,26.87
2022-12-05T13:15:44.568Z,26.03
2022-12-05T13:18:17.285Z,24.97
2022-12-05T13:20:47.173Z,25.93
2022-12-05T13:23:19.317Z,26.53
2022-12-05T13:25:48.388Z,25.97
2022-12-05T13:28:28.603Z,25.70
2022-12-05T13:31:02.758Z,25.77
2022-12-05T13:33:36.715Z,23.37
2022-12-05T13:36:27.130Z,26.07
2022-12-05T13:39:17.740Z,25.93
2022-12-05T13:42:05.073Z,24.80
2022-12-05T13:44:39.610Z,27.40
2022-12-05T13:47:10.179Z,26.87
2022-12-05T13:49:46.175Z,27.93
2022-12-05T13:52:19.343Z,25.97
2022-12-05T13:54:55.233Z,25.97
2022-12-05T13:57:47.151Z,26.80
2022-12-05T14:00:32.408Z,26.70
2022-12-05T14:03:16.878Z,25.47
2022-12-05T14:05:51.298Z,27.67
2022-12-05T14:08:58.379Z,29.70
2022-12-05T14:11:26.353Z,31.73
2022-12-05T14:13:59.108Z,29.43
2022-12-05T14:16:53.863Z,33.23
2022-12-05T14:19:53.238Z,35.03
2022-12-05T14:22:51.659Z,28.93
2022-12-05T14:25:45.516Z,28.37
2022-12-05T14:28:28.964Z,30.20
2022-12-05T14:31:13.806Z,28.47
2022-12-05T14:33:43.253Z,28.10
2022-12-05T14:36:18.606Z,30.20
2022-12-05T14:38:46.618Z,28.33
2022-12-05T14:41:18.353Z,28.90
2022-12-05T14:43:53.454Z,31.07
2022-12-05T14:46:26.845Z,29.60
2022-12-05T14:48:59.381Z,28.60
2022-12-05T14:51:46.951Z,28.30
2022-12-05T14:54:17.663Z,28.73
2022-12-05T14:56:48.044Z,30.90
2022-12-05T14:59:26.082Z,29.37
2022-12-05T15:01:57.977Z,27.93
2022-12-05T15:04:33.907Z,29.00
2022-12-05T15:07:05.722Z,30.40
2022-12-05T15:09:42.862Z,33.80
2022-12-05T15:12:15.893Z,34.30
2022-12-05T15:14:54.328Z,31.50
2022-12-05T15:17:26.725Z,28.43
2022-12-05T15:20:03.752Z,30.43
2022-12-05T15:22:36.540Z,29.20
2022-12-05T15:25:27.258Z,28.73
2022-12-05T15:28:06.854Z,29.13
2022-12-05T15:30:39.722Z,29.30
2022-12-05T15:33:13.629Z,28.60
2022-12-05T15:35:47.894Z,28.77
2022-12-05T15:38:26.995Z,26.83
2022-12-05T15:40:55.649Z,29.57
2022-12-05T15:43:31.861Z,29.70
2022-12-05T15:46:11.111Z,29.50
2022-12-05T15:48:39.225Z,30.73
2022-12-05T15:51:09.009Z,36.97
2022-12-05T15:53:41.423Z,61.37
2022-12-05T15:56:14.394Z,41.50
2022-12-05T15:58:45.702Z,29.50
2022-12-05T16:01:18.501Z,30.93
2022-12-05T16:03:49.655Z,26.47
2022-12-05T16:06:25.021Z,27.63
2022-12-05T16:08:53.420Z,27.10
2022-12-05T16:11:21.958Z,24.23
2022-12-05T16:13:56.065Z,25.03
2022-12-05T16:16:26.851Z,24.67
2022-12-05T16:18:56.431Z,24.90
2022-12-05T16:21:38.888Z,25.10
2022-12-05T16:24:09.548Z,25.73
2022-12-05T16:26:39.696Z,26.13
2022-12-05T16:29:09.438Z,24.80
2022-12-05T16:31:39.013Z,26.23
2022-12-05T16:34:09.501Z,26.43
2022-12-05T16:36:47.905Z,34.50
2022-12-05T16:39:19.702Z,28.00
2022-12-05T16:41:48.982Z,26.87
2022-12-05T16:45:02.149Z,27.27
2022-12-05T16:47:56.689Z,26.10
2022-12-05T16:50:31.202Z,26.53
2022-12-05T16:53:15.367Z,25.37
2022-12-05T16:55:45.664Z,26.00
2022-12-05T16:58:19.096Z,33.00
2022-12-05T17:00:47.134Z,29.90
2022-12-05T17:03:40.093Z,28.33
2022-12-05T17:06:03.723Z,25.23
2022-12-05T17:08:33.156Z,34.53
2022-12-05T17:11:02.007Z,32.70
2022-12-05T17:13:31.839Z,35.03
2022-12-05T17:15:59.907Z,30.20
2022-12-05T17:18:31.914Z,31.23
2022-12-05T17:21:03.034Z,27.07
2022-12-05T17:23:32.379Z,24.47
2022-12-05T17:26:00.898Z,25.13
2022-12-05T17:28:28.882Z,22.70
2022-12-05T17:30:57.320Z,21.97
2022-12-05T17:33:25.907Z,23.47
2022-12-05T17:35:53.901Z,22.80
2022-12-05T17:38:22.064Z,22.43
2022-12-05T17:40:51.643Z,21.40
2022-12-05T17:43:24.835Z,20.87
2022-12-05T17:45:54.823Z,19.67
2022-12-05T17:48:23.296Z,20.00
2022-12-05T17:50:51.410Z,20.33
2022-12-05T17:53:21.545Z,19.73
2022-12-05T17:55:51.437Z,20.40
2022-12-05T17:58:19.435Z,18.80
2022-12-05T18:00:48.366Z,20.53
2022-12-05T18:03:18.694Z,18.40
2022-12-05T18:05:47.282Z,19.23
2022-12-05T18:08:17.094Z,19.57
2022-12-05T18:10:46.867Z,18.80
2022-12-05T18:13:17.699Z,20.37
2022-12-05T18:15:48.235Z,19.37
2022-12-05T18:18:18.327Z,18.50
2022-12-05T18:20:46.335Z,19.73
2022-12-05T18:23:14.302Z,19.80
2022-12-05T18:25:43.024Z,18.50
2022-12-05T18:28:13.977Z,18.87
2022-12-05T18:30:44.542Z,17.43
2022-12-05T18:33:12.528Z,18.27
2022-12-05T18:35:42.989Z,16.93
2022-12-05T18:38:12.394Z,17.90
2022-12-05T18:40:40.468Z,18.23
2022-12-05T18:43:08.483Z,19.07
2022-12-05T18:45:36.511Z,19.17
2022-12-05T18:50:54.695Z,17.13
2022-12-05T18:53:22.882Z,17.63
2022-12-05T18:56:20.075Z,17.03
2022-12-05T18:58:39.369Z,17.43
2022-12-05T19:01:09.191Z,16.57
2022-12-05T19:03:40.209Z,17.53
2022-12-05T19:06:14.997Z,16.23
2022-12-05T19:08:44.407Z,16.47
2022-12-05T19:11:13.024Z,16.20
2022-12-05T19:13:41.452Z,17.43
2022-12-05T19:16:13.933Z,16.83
2022-12-05T19:18:43.491Z,16.63
2022-12-05T19:21:11.714Z,16.33
2022-12-05T19:23:40.103Z,15.63
2022-12-05T19:26:09.580Z,17.60
2022-12-05T19:28:38.667Z,17.13
2022-12-05T19:31:08.863Z,15.97
2022-12-05T19:33:39.346Z,15.60
2022-12-05T19:36:11.956Z,16.50
2022-12-05T19:38:40.808Z,14.70
2022-12-05T19:41:10.593Z,15.67
2022-12-05T19:43:39.399Z,14.57
2022-12-05T19:46:09.977Z,15.10
2022-12-05T19:48:38.201Z,15.13
2022-12-05T19:51:06.573Z,15.50
2022-12-05T19:53:37.453Z,14.97
2022-12-05T19:56:08.779Z,14.40
2022-12-05T19:58:37.511Z,14.63
2022-12-05T20:01:10.143Z,14.70
2022-12-05T20:03:38.551Z,15.53
2022-12-05T20:06:07.673Z,14.27
2022-12-05T20:08:38.374Z,14.97
2022-12-05T20:11:07.643Z,14.03
2022-12-05T20:13:52.287Z,14.60
2022-12-05T20:16:22.535Z,14.57
2022-12-05T20:18:51.407Z,14.67
2022-12-05T20:21:22.032Z,12.33
2022-12-05T20:23:51.865Z,12.50
2022-12-05T20:26:22.434Z,13.37
2022-12-05T20:28:51.279Z,12.80
2022-12-05T20:31:20.753Z,14.80
2022-12-05T20:33:50.229Z,13.17
2022-12-05T20:36:20.052Z,12.50
2022-12-05T20:38:48.803Z,12.57
2022-12-05T20:41:20.056Z,12.07
2022-12-05T20:43:49.381Z,11.30
2022-12-05T20:46:19.193Z,11.73
2022-12-05T20:48:49.136Z,12.37
2022-12-05T20:51:19.226Z,12.10
2022-12-05T20:53:47.971Z,11.03
2022-12-05T20:56:19.371Z,11.47
2022-12-05T20:58:49.248Z,11.67
2022-12-05T21:01:19.186Z,10.97
2022-12-05T21:03:49.643Z,11.17
2022-12-05T21:06:19.545Z,11.37
2022-12-05T21:08:47.551Z,11.10
2022-12-05T21:11:17.621Z,10.93
2022-12-05T21:13:46.080Z,12.10
2022-12-05T21:16:17.186Z,11.43
2022-12-05T21:18:45.602Z,11.20
2022-12-05T21:21:15.612Z,12.40
2022-12-05T21:23:44.096Z,11.30
2022-12-05T21:26:15.034Z,11.23
2022-12-05T21:28:46.205Z,11.10
2022-12-05T21:31:16.611Z,11.37
2022-12-05T21:33:48.656Z,11.80
2022-12-05T21:36:16.848Z,11.77
2022-12-05T21:38:44.854Z,11.30
2022-12-05T21:41:12.982Z,10.43
2022-12-05T21:43:41.121Z,10.97
2022-12-05T21:46:10.670Z,11.30
2022-12-05T21:48:38.835Z,10.73
2022-12-05T21:51:07.840Z,11.30
2022-12-05T21:53:36.450Z,10.83
2022-12-05T21:56:06.831Z,10.87
2022-12-05T21:58:39.318Z,10.70
2022-12-05T22:01:12.369Z,10.37
2022-12-05T22:03:40.475Z,10.40
2022-12-05T22:06:10.586Z,9.70
2022-12-05T22:08:39.497Z,9.50
2022-12-05T22:11:08.542Z,9.87
2022-12-05T22:13:36.996Z,9.20
2022-12-05T22:16:05.759Z,9.60
2022-12-05T22:18:35.765Z,10.17
2022-12-05T22:21:06.547Z,10.03
2022-12-05T22:23:35.693Z,9.87
2022-12-05T22:26:06.455Z,9.27
2022-12-05T22:28:35.079Z,9.83
2022-12-05T22:31:05.592Z,9.20
2022-12-05T22:33:36.538Z,10.13
2022-12-05T22:36:06.808Z,9.60
2022-12-05T22:38:36.218Z,10.33
2022-12-05T22:41:06.893Z,10.07
2022-12-05T22:43:36.651Z,9.33
2022-12-05T22:46:06.265Z,9.53
2022-12-05T22:48:36.014Z,9.47
2022-12-05T22:51:05.354Z,9.90
2022-12-05T22:53:33.701Z,9.20
2022-12-05T22:56:07.073Z,9.43
2022-12-05T22:58:35.387Z,8.43
2022-12-05T23:01:14.114Z,10.03
2022-12-05T23:03:44.837Z,8.87
2022-12-05T23:06:14.419Z,9.57
2022-12-05T23:08:43.634Z,9.00
2022-12-05T23:11:12.420Z,9.03
2022-12-05T23:13:40.813Z,9.83
2022-12-05T23:16:10.271Z,9.73
2022-12-05T23:18:47.565Z,9.40
2022-12-05T23:21:19.881Z,10.10
2022-12-05T23:23:48.953Z,9.57
2022-12-05T23:26:18.076Z,9.97
2022-12-05T23:28:46.160Z,9.43
2022-12-05T23:31:14.771Z,9.10
2022-12-05T23:33:43.276Z,9.10
2022-12-05T23:36:11.623Z,8.97
2022-12-05T23:38:42.462Z,9.77
2022-12-05T23:41:14.359Z,8.93
2022-12-05T23:43:43.480Z,10.37
2022-12-05T23:46:12.483Z,9.10
2022-12-05T23:48:41.045Z,9.53
2022-12-05T23:51:11.350Z,9.97
2022-12-05T23:53:42.252Z,9.77
2022-12-05T23:56:12.314Z,8.97
2022-12-05T23:58:40.921Z,9.67
